createdAt,value
2023-11-26T00:02:21.813Z,92.56
2023-11-26T00:04:48.639Z,92.05
2023-11-26T00:07:15.630Z,91.80
2023-11-26T00:09:42.164Z,91.78
2023-11-26T00:12:10.140Z,91.75
2023-11-26T00:14:38.116Z,92.30
2023-11-26T00:17:04.844Z,91.71
2023-11-26T00:19:32.148Z,91.93
2023-11-26T00:21:58.775Z,92.57
2023-11-26T00:24:25.517Z,91.80
2023-11-26T00:26:52.557Z,91.27
2023-11-26T00:29:20.495Z,92.38
2023-11-26T00:31:47.111Z,91.85
2023-11-26T00:34:13.680Z,92.28
2023-11-26T00:36:40.256Z,91.75
2023-11-26T00:39:06.964Z,92.70
2023-11-26T00:41:33.521Z,92.93
2023-11-26T00:44:00.107Z,92.77
2023-11-26T00:46:28.185Z,93.45
2023-11-26T00:48:54.748Z,92.95
2023-11-26T00:51:21.958Z,92.39
2023-11-26T00:53:51.606Z,92.71
2023-11-26T00:56:18.480Z,93.49
2023-11-26T00:58:45.025Z,92.61
2023-11-26T01:01:11.671Z,92.94
2023-11-26T01:03:39.712Z,92.60
2023-11-26T01:06:06.814Z,93.04
2023-11-26T01:08:33.404Z,92.78
2023-11-26T01:11:00.392Z,92.70
2023-11-26T01:13:27.023Z,93.63
2023-11-26T01:15:53.623Z,92.69
2023-11-26T01:18:20.236Z,93.26
2023-11-26T01:20:48.157Z,93.08
2023-11-26T01:23:14.712Z,93.23
2023-11-26T01:25:41.388Z,93.11
2023-11-26T01:28:08.009Z,92.93
2023-11-26T01:30:34.620Z,92.34
2023-11-26T01:33:01.776Z,92.21
2023-11-26T01:35:28.450Z,92.17
2023-11-26T01:37:56.477Z,91.90
2023-11-26T01:40:23.073Z,91.81
2023-11-26T01:42:49.663Z,92.19
2023-11-26T01:45:16.274Z,91.89
2023-11-26T01:47:43.082Z,92.73
2023-11-26T01:50:12.958Z,92.51
2023-11-26T01:52:39.540Z,92.64
2023-11-26T01:55:08.275Z,92.44
2023-11-26T01:57:34.893Z,92.80
2023-11-26T02:00:01.722Z,92.18
2023-11-26T02:02:28.530Z,92.11
2023-11-26T02:04:55.236Z,92.22
2023-11-26T02:07:21.788Z,92.31
2023-11-26T02:09:48.586Z,92.82
2023-11-26T02:12:16.489Z,92.63
2023-11-26T02:14:48.521Z,92.87
2023-11-26T02:17:16.060Z,93.05
2023-11-26T02:19:42.690Z,93.68
2023-11-26T02:22:09.612Z,93.44
2023-11-26T02:24:41.738Z,92.71
2023-11-26T02:27:08.331Z,92.67
2023-11-26T02:29:34.914Z,92.61
2023-11-26T02:32:01.746Z,92.42
2023-11-26T02:34:28.445Z,92.66
2023-11-26T02:36:55.040Z,93.16
2023-11-26T02:39:21.657Z,93.05
2023-11-26T02:41:49.548Z,93.14
2023-11-26T02:44:16.122Z,93.59
2023-11-26T02:46:44.200Z,93.73
2023-11-26T02:49:10.865Z,93.49
2023-11-26T02:51:37.785Z,92.98
2023-11-26T02:54:04.520Z,93.33
2023-11-26T02:56:31.352Z,93.51
2023-11-26T02:58:59.312Z,93.55
2023-11-26T03:01:30.781Z,93.14
2023-11-26T03:03:57.670Z,93.38
2023-11-26T03:06:27.325Z,93.52
2023-11-26T03:09:01.585Z,93.78
2023-11-26T03:11:47.272Z,93.12
2023-11-26T03:14:15.713Z,93.74
2023-11-26T03:16:46.008Z,93.99
2023-11-26T03:19:13.225Z,93.66
2023-11-26T03:21:44.282Z,93.69
2023-11-26T03:24:13.336Z,94.12
2023-11-26T03:26:40.773Z,94.09
2023-11-26T03:29:07.411Z,94.23
2023-11-26T03:31:35.489Z,93.36
2023-11-26T03:34:09.264Z,93.64
2023-11-26T03:36:36.442Z,94.02
2023-11-26T03:39:03.177Z,93.55
2023-11-26T03:41:29.831Z,93.74
2023-11-26T03:43:56.484Z,93.37
2023-11-26T03:46:23.918Z,93.35
2023-11-26T03:48:53.093Z,93.39
2023-11-26T03:51:21.950Z,93.02
2023-11-26T03:53:48.914Z,93.56
2023-11-26T03:56:15.875Z,93.06
2023-11-26T03:58:42.617Z,93.59
2023-11-26T04:01:09.385Z,93.81
2023-11-26T04:03:36.122Z,93.73
2023-11-26T04:06:04.490Z,93.98
2023-11-26T04:08:31.387Z,93.79
2023-11-26T04:10:57.961Z,93.59
2023-11-26T04:13:26.204Z,93.30
2023-11-26T04:15:58.601Z,93.12
2023-11-26T04:18:29.545Z,93.58
2023-11-26T04:20:56.683Z,93.44
2023-11-26T04:23:24.688Z,92.61
2023-11-26T04:25:51.673Z,92.76
2023-11-26T04:28:18.205Z,93.54
2023-11-26T04:30:44.986Z,93.67
2023-11-26T04:33:11.696Z,92.72
2023-11-26T04:35:38.860Z,93.78
2023-11-26T04:38:05.500Z,93.90
2023-11-26T04:40:33.531Z,94.38
2023-11-26T04:43:00.156Z,94.40
2023-11-26T04:45:27.174Z,94.66
2023-11-26T04:47:54.105Z,94.70
2023-11-26T04:50:21.055Z,93.48
2023-11-26T04:52:47.687Z,93.27
2023-11-26T04:55:14.364Z,94.39
2023-11-26T04:57:42.290Z,94.02
2023-11-26T05:00:13.031Z,94.50
2023-11-26T05:02:41.173Z,93.90
2023-11-26T05:05:10.055Z,94.54
2023-11-26T05:07:37.631Z,93.49
2023-11-26T05:10:07.087Z,94.21
2023-11-26T05:12:34.244Z,94.36
2023-11-26T05:15:02.494Z,95.15
2023-11-26T05:17:29.436Z,94.75
2023-11-26T05:19:56.087Z,94.53
2023-11-26T05:22:23.708Z,94.54
2023-11-26T05:24:50.172Z,94.59
2023-11-26T05:27:16.860Z,94.03
2023-11-26T05:29:43.528Z,94.12
2023-11-26T05:32:11.997Z,93.90
2023-11-26T05:34:38.611Z,94.39
2023-11-26T05:37:05.432Z,93.65
2023-11-26T05:39:32.045Z,94.29
2023-11-26T05:41:58.589Z,94.58
2023-11-26T05:44:25.255Z,93.49
2023-11-26T05:46:51.843Z,93.72
2023-11-26T05:49:19.980Z,93.79
2023-11-26T05:51:46.647Z,93.91
2023-11-26T05:54:13.323Z,93.73
2023-11-26T05:56:43.711Z,94.33
2023-11-26T05:59:10.252Z,93.96
2023-11-26T06:01:36.839Z,93.13
2023-11-26T06:04:04.351Z,94.29
2023-11-26T06:06:32.322Z,93.34
2023-11-26T06:08:58.933Z,93.84
2023-11-26T06:11:25.498Z,94.35
2023-11-26T06:13:52.152Z,94.59
2023-11-26T06:16:18.804Z,93.90
2023-11-26T06:18:45.491Z,94.01
2023-11-26T06:21:14.715Z,94.05
2023-11-26T06:23:42.685Z,93.13
2023-11-26T06:26:09.297Z,94.17
2023-11-26T06:28:37.415Z,93.89
2023-11-26T06:31:04.715Z,94.56
2023-11-26T06:33:31.352Z,94.61
2023-11-26T06:35:58.005Z,94.84
2023-11-26T06:38:25.549Z,94.70
2023-11-26T06:40:53.539Z,94.74
2023-11-26T06:43:20.131Z,94.98
2023-11-26T06:45:46.917Z,94.05
2023-11-26T06:48:13.626Z,94.79
2023-11-26T06:50:40.245Z,94.57
2023-11-26T06:53:06.845Z,94.01
2023-11-26T06:55:33.431Z,95.12
2023-11-26T06:58:01.363Z,94.71
2023-11-26T07:00:28.043Z,94.63
2023-11-26T07:02:54.728Z,95.01
2023-11-26T07:05:21.877Z,95.28
2023-11-26T07:07:48.502Z,94.36
2023-11-26T07:10:15.481Z,94.24
2023-11-26T07:12:42.084Z,94.61
2023-11-26T07:15:11.346Z,94.33
2023-11-26T07:17:38.123Z,94.59
2023-11-26T07:20:06.612Z,94.40
2023-11-26T07:22:33.285Z,94.36
2023-11-26T07:25:00.632Z,94.81
2023-11-26T07:27:27.287Z,94.95
2023-11-26T07:29:53.951Z,94.42
2023-11-26T07:32:22.079Z,94.34
2023-11-26T07:34:48.783Z,94.84
2023-11-26T07:37:15.349Z,95.18
2023-11-26T07:39:41.987Z,95.54
2023-11-26T07:42:09.016Z,96.20
2023-11-26T07:44:35.726Z,95.22
2023-11-26T07:47:03.010Z,94.99
2023-11-26T07:49:32.457Z,94.52
2023-11-26T07:51:59.236Z,94.73
2023-11-26T07:54:26.209Z,95.15
2023-11-26T07:56:52.967Z,94.58
2023-11-26T07:59:19.585Z,94.05
2023-11-26T08:01:50.769Z,94.41
2023-11-26T08:04:18.588Z,94.31
2023-11-26T08:06:48.232Z,93.96
2023-11-26T08:09:15.631Z,94.69
2023-11-26T08:11:44.864Z,94.86
2023-11-26T08:14:13.549Z,94.61
2023-11-26T08:16:40.575Z,94.43
2023-11-26T08:19:13.441Z,94.95
2023-11-26T08:21:40.879Z,94.38
2023-11-26T08:24:15.105Z,94.62
2023-11-26T08:26:42.642Z,95.09
2023-11-26T08:29:10.823Z,94.89
2023-11-26T08:31:40.701Z,95.31
2023-11-26T08:34:08.693Z,95.06
2023-11-26T08:36:37.074Z,95.26
2023-11-26T08:39:05.900Z,94.54
2023-11-26T08:41:33.811Z,94.36
2023-11-26T08:44:01.551Z,94.27
2023-11-26T08:46:29.533Z,94.37
2023-11-26T08:48:57.350Z,94.67
2023-11-26T08:51:26.668Z,94.00
2023-11-26T08:53:54.032Z,93.93
2023-11-26T08:56:21.944Z,93.67
2023-11-26T08:58:49.984Z,93.55
2023-11-26T09:01:16.742Z,93.93
2023-11-26T09:03:43.426Z,94.53
2023-11-26T09:06:10.333Z,94.08
2023-11-26T09:08:36.913Z,93.93
2023-11-26T09:11:04.221Z,93.47
2023-11-26T09:13:31.434Z,93.78
2023-11-26T09:16:00.600Z,93.02
2023-11-26T09:18:27.353Z,93.16
2023-11-26T09:20:54.007Z,92.67
2023-11-26T09:23:20.593Z,92.30
2023-11-26T09:25:47.174Z,91.88
2023-11-26T09:28:13.831Z,92.95
2023-11-26T09:30:40.595Z,93.17
2023-11-26T09:33:10.654Z,93.95
2023-11-26T09:35:37.403Z,93.25
2023-11-26T09:38:04.426Z,92.54
2023-11-26T09:40:30.945Z,93.07
2023-11-26T09:42:57.967Z,93.11
2023-11-26T09:45:24.808Z,93.44
2023-11-26T09:47:51.445Z,92.49
2023-11-26T09:50:19.487Z,93.17
2023-11-26T09:52:48.982Z,93.04
2023-11-26T09:55:15.534Z,93.34
2023-11-26T09:57:42.224Z,92.71
2023-11-26T10:00:11.866Z,93.04
2023-11-26T10:02:39.057Z,92.32
2023-11-26T10:05:07.709Z,92.06
2023-11-26T10:07:37.156Z,92.70
2023-11-26T10:10:14.209Z,92.80
2023-11-26T10:12:52.902Z,92.08
2023-11-26T10:15:21.377Z,91.97
2023-11-26T10:18:04.024Z,91.19
2023-11-26T10:20:31.088Z,90.44
2023-11-26T10:22:59.244Z,91.68
2023-11-26T10:25:26.047Z,90.17
2023-11-26T10:27:52.823Z,90.19
2023-11-26T10:30:28.975Z,90.49
2023-11-26T10:32:57.867Z,90.79
2023-11-26T10:35:24.604Z,89.96
2023-11-26T10:37:51.557Z,88.70
2023-11-26T10:40:19.537Z,89.02
2023-11-26T10:42:46.229Z,90.15
2023-11-26T10:45:13.064Z,90.78
2023-11-26T10:47:42.200Z,89.99
2023-11-26T10:50:13.170Z,91.36
2023-11-26T10:52:47.343Z,91.20
2023-11-26T10:55:18.082Z,90.87
2023-11-26T10:57:50.482Z,91.37
2023-11-26T11:00:19.822Z,91.46
2023-11-26T11:02:47.082Z,92.11
2023-11-26T11:05:13.993Z,91.87
2023-11-26T11:07:41.260Z,92.09
2023-11-26T11:10:16.504Z,91.48
2023-11-26T11:12:54.505Z,91.73
2023-11-26T11:15:22.790Z,91.06
2023-11-26T11:17:49.543Z,91.78
2023-11-26T11:20:16.244Z,92.37
2023-11-26T11:22:43.188Z,91.04
2023-11-26T11:25:11.348Z,91.13
2023-11-26T11:27:55.291Z,90.86
2023-11-26T11:30:52.633Z,90.92
2023-11-26T11:33:19.339Z,90.43
2023-11-26T11:35:47.644Z,89.51
2023-11-26T11:38:16.826Z,90.01
2023-11-26T11:41:03.863Z,90.19
2023-11-26T11:43:32.063Z,90.80
2023-11-26T11:46:00.878Z,89.85
2023-11-26T11:48:55.023Z,89.81
2023-11-26T11:51:35.231Z,89.97
2023-11-26T11:54:18.047Z,90.46
2023-11-26T11:56:45.958Z,89.77
2023-11-26T11:59:14.300Z,90.79
2023-11-26T12:01:43.417Z,90.03
2023-11-26T12:04:12.615Z,89.92
2023-11-26T12:06:42.289Z,90.32
2023-11-26T12:09:12.496Z,90.49
2023-11-26T12:11:43.150Z,90.09
2023-11-26T12:14:09.730Z,90.84
2023-11-26T12:16:37.762Z,90.87
2023-11-26T12:19:07.157Z,90.18
2023-11-26T12:21:33.734Z,90.68
2023-11-26T12:24:00.337Z,90.22
2023-11-26T12:26:34.558Z,90.17
2023-11-26T12:29:01.091Z,90.17
2023-11-26T12:31:27.701Z,90.66
2023-11-26T12:33:56.054Z,90.77
2023-11-26T12:36:22.917Z,90.57
2023-11-26T12:38:49.993Z,89.86
2023-11-26T12:41:16.934Z,90.27
2023-11-26T12:43:44.125Z,90.72
2023-11-26T12:46:11.404Z,90.47
2023-11-26T12:48:39.370Z,90.73
2023-11-26T12:51:07.851Z,90.69
2023-11-26T12:53:34.997Z,90.11
2023-11-26T12:56:01.938Z,91.04
2023-11-26T12:58:31.278Z,91.20
2023-11-26T13:00:58.216Z,91.12
2023-11-26T13:03:24.931Z,90.60
2023-11-26T13:05:52.431Z,91.91
2023-11-26T13:08:21.510Z,91.13
2023-11-26T13:10:52.525Z,91.48
2023-11-26T13:13:22.461Z,90.85
2023-11-26T13:15:49.545Z,90.45
2023-11-26T13:18:16.943Z,90.74
2023-11-26T13:20:48.148Z,91.51
2023-11-26T13:23:14.813Z,91.50
2023-11-26T13:25:43.005Z,91.60
2023-11-26T13:28:09.612Z,91.41
2023-11-26T13:30:40.162Z,91.62
2023-11-26T13:33:07.534Z,90.61
2023-11-26T13:35:34.489Z,91.64
2023-11-26T13:38:02.315Z,90.93
2023-11-26T13:40:31.196Z,91.29
2023-11-26T13:43:00.691Z,91.61
2023-11-26T13:45:27.261Z,91.36
2023-11-26T13:48:05.033Z,92.08
2023-11-26T13:50:36.995Z,91.66
2023-11-26T13:53:06.066Z,91.85
2023-11-26T13:55:32.609Z,91.70
2023-11-26T13:58:02.785Z,92.26
2023-11-26T14:00:29.906Z,92.21
2023-11-26T14:02:56.542Z,92.39
2023-11-26T14:05:24.312Z,91.27
2023-11-26T14:07:52.905Z,92.71
2023-11-26T14:10:21.924Z,92.09
2023-11-26T14:12:49.867Z,91.88
2023-11-26T14:15:18.009Z,91.80
2023-11-26T14:17:45.510Z,92.09
2023-11-26T14:20:13.714Z,91.46
2023-11-26T14:22:43.238Z,91.53
2023-11-26T14:25:12.874Z,92.15
2023-11-26T14:27:39.517Z,93.03
2023-11-26T14:30:07.597Z,92.50
2023-11-26T14:32:35.525Z,92.43
2023-11-26T14:35:02.821Z,92.23
2023-11-26T14:37:29.363Z,92.42
2023-11-26T14:39:57.523Z,92.19
2023-11-26T14:42:24.120Z,92.18
2023-11-26T14:44:50.693Z,91.88
2023-11-26T14:47:19.362Z,91.77
2023-11-26T14:49:47.262Z,92.00
2023-11-26T14:52:13.913Z,91.75
2023-11-26T14:54:44.002Z,91.48
2023-11-26T14:57:11.260Z,92.41
2023-11-26T14:59:37.908Z,92.02
2023-11-26T15:02:04.619Z,92.65
2023-11-26T15:04:31.883Z,91.74
2023-11-26T15:06:59.870Z,92.42
2023-11-26T15:09:26.566Z,92.27
2023-11-26T15:11:53.100Z,92.67
2023-11-26T15:14:19.757Z,92.95
2023-11-26T15:16:46.349Z,92.18
2023-11-26T15:19:12.987Z,92.40
2023-11-26T15:21:39.612Z,93.04
2023-11-26T15:24:07.658Z,93.17
2023-11-26T15:26:34.187Z,92.23
2023-11-26T15:29:00.771Z,93.03
2023-11-26T15:31:28.181Z,93.15
2023-11-26T15:33:55.038Z,93.68
2023-11-26T15:36:21.773Z,93.74
2023-11-26T15:38:49.051Z,93.33
2023-11-26T15:41:21.700Z,92.83
2023-11-26T15:43:48.379Z,92.63
2023-11-26T15:46:19.177Z,93.13
2023-11-26T15:48:46.103Z,92.55
2023-11-26T15:51:12.681Z,93.12
2023-11-26T15:53:39.804Z,93.11
2023-11-26T15:56:07.550Z,92.64
2023-11-26T15:58:35.463Z,93.22
2023-11-26T16:01:03.387Z,92.93
2023-11-26T16:03:30.469Z,93.22
2023-11-26T16:05:57.103Z,92.96
2023-11-26T16:08:23.743Z,92.76
2023-11-26T16:10:50.344Z,92.35
2023-11-26T16:13:18.111Z,92.17
2023-11-26T16:15:46.087Z,92.46
2023-11-26T16:18:12.802Z,92.22
2023-11-26T16:20:39.376Z,91.86
2023-11-26T16:23:06.692Z,91.88
2023-11-26T16:25:33.460Z,91.34
2023-11-26T16:28:00.136Z,91.63
2023-11-26T16:30:26.764Z,91.13
2023-11-26T16:32:56.791Z,91.82
2023-11-26T16:35:23.717Z,91.37
2023-11-26T16:37:50.235Z,91.98
2023-11-26T16:40:17.118Z,92.31
2023-11-26T16:42:44.105Z,92.41
2023-11-26T16:45:10.851Z,92.66
2023-11-26T16:47:38.161Z,92.00
2023-11-26T16:50:07.779Z,92.62
2023-11-26T16:52:34.407Z,92.38
2023-11-26T16:55:01.340Z,91.75
2023-11-26T16:57:27.976Z,91.20
2023-11-26T16:59:54.607Z,91.42
2023-11-26T17:02:21.845Z,90.90
2023-11-26T17:04:48.534Z,90.89
2023-11-26T17:07:16.676Z,91.65
2023-11-26T17:09:43.693Z,91.19
2023-11-26T17:12:10.764Z,91.12
2023-11-26T17:14:37.810Z,90.47
2023-11-26T17:17:04.549Z,90.64
2023-11-26T17:19:31.998Z,90.80
2023-11-26T17:21:58.555Z,91.26
2023-11-26T17:24:26.750Z,91.51
2023-11-26T17:26:53.838Z,91.12
2023-11-26T17:29:20.461Z,90.56
2023-11-26T17:31:47.068Z,90.99
2023-11-26T17:34:13.735Z,91.33
2023-11-26T17:36:42.379Z,91.08
2023-11-26T17:39:10.158Z,91.13
2023-11-26T17:41:38.045Z,90.52
2023-11-26T17:44:05.011Z,91.28
2023-11-26T17:46:31.662Z,90.70
2023-11-26T17:48:58.260Z,90.78
2023-11-26T17:51:24.866Z,90.84
2023-11-26T17:53:51.447Z,90.78
2023-11-26T17:56:18.015Z,90.98
2023-11-26T17:58:46.139Z,90.94
2023-11-26T18:01:15.872Z,91.56
2023-11-26T18:03:42.876Z,90.81
2023-11-26T18:06:09.970Z,91.44
2023-11-26T18:08:36.593Z,90.99
2023-11-26T18:11:06.827Z,91.13
2023-11-26T18:13:33.452Z,90.86
2023-11-26T18:16:01.353Z,90.73
2023-11-26T18:18:27.970Z,91.72
2023-11-26T18:20:54.753Z,91.34
2023-11-26T18:23:21.348Z,91.83
2023-11-26T18:25:47.976Z,91.33
2023-11-26T18:28:14.564Z,91.38
2023-11-26T18:30:41.190Z,90.67
2023-11-26T18:33:09.187Z,90.36
2023-11-26T18:35:35.837Z,90.34
2023-11-26T18:38:02.421Z,90.23
2023-11-26T18:40:29.432Z,89.62
2023-11-26T18:42:56.339Z,90.40
2023-11-26T18:45:24.050Z,89.88
2023-11-26T18:47:53.471Z,90.26
2023-11-26T18:50:21.451Z,90.17
2023-11-26T18:52:48.369Z,89.70
2023-11-26T18:55:15.647Z,90.01
2023-11-26T18:57:42.324Z,89.80
2023-11-26T19:00:10.424Z,89.33
2023-11-26T19:02:37.161Z,88.38
2023-11-26T19:05:04.084Z,88.72
2023-11-26T19:07:32.076Z,87.83
2023-11-26T19:09:59.969Z,88.80
2023-11-26T19:12:26.558Z,88.67
2023-11-26T19:14:55.119Z,87.83
2023-11-26T19:17:21.772Z,88.64
2023-11-26T19:19:48.478Z,87.72
2023-11-26T19:22:15.145Z,87.55
2023-11-26T19:24:43.123Z,87.13
2023-11-26T19:27:09.657Z,87.38
2023-11-26T19:29:36.198Z,87.90
2023-11-26T19:32:02.770Z,87.45
2023-11-26T19:34:29.453Z,87.96
2023-11-26T19:36:56.079Z,86.97
2023-11-26T19:39:22.680Z,86.79
2023-11-26T19:41:50.632Z,86.99
2023-11-26T19:44:17.219Z,86.67
2023-11-26T19:46:43.863Z,86.46
2023-11-26T19:49:10.605Z,85.97
2023-11-26T19:51:37.494Z,85.94
2023-11-26T19:54:05.302Z,85.05
2023-11-26T19:56:31.841Z,86.07
2023-11-26T19:59:00.396Z,86.13
2023-11-26T20:01:27.224Z,86.28
2023-11-26T20:03:54.493Z,86.31
2023-11-26T20:06:21.523Z,86.14
2023-11-26T20:08:48.092Z,86.21
2023-11-26T20:11:14.840Z,86.35
2023-11-26T20:13:41.580Z,86.14
2023-11-26T20:16:13.304Z,86.25
2023-11-26T20:18:40.488Z,86.67
2023-11-26T20:21:10.325Z,86.74
2023-11-26T20:23:37.154Z,87.15
2023-11-26T20:26:03.806Z,87.06
2023-11-26T20:28:30.423Z,86.59
2023-11-26T20:31:08.084Z,86.48
2023-11-26T20:33:38.716Z,86.70
2023-11-26T20:36:06.221Z,85.05
2023-11-26T20:38:32.789Z,85.11
2023-11-26T20:40:59.720Z,85.27
2023-11-26T20:43:26.296Z,85.87
2023-11-26T20:45:53.044Z,85.48
2023-11-26T20:48:19.666Z,85.39
2023-11-26T20:50:47.595Z,86.15
2023-11-26T20:53:17.134Z,86.10
2023-11-26T20:55:44.237Z,85.42
2023-11-26T20:58:10.877Z,84.94
2023-11-26T21:00:38.216Z,85.34
2023-11-26T21:03:05.002Z,86.23
2023-11-26T21:05:34.746Z,84.66
2023-11-26T21:08:02.941Z,86.01
2023-11-26T21:10:29.560Z,86.38
2023-11-26T21:12:58.002Z,85.37
2023-11-26T21:15:24.659Z,84.76
2023-11-26T21:17:51.342Z,85.40
2023-11-26T21:20:18.105Z,85.03
2023-11-26T21:22:45.256Z,85.17
2023-11-26T21:25:13.309Z,85.28
2023-11-26T21:27:40.135Z,84.89
2023-11-26T21:32:34.960Z,84.74
2023-11-26T21:35:01.726Z,85.76
2023-11-26T21:37:29.922Z,86.03
2023-11-26T21:39:56.786Z,85.13
2023-11-26T21:42:24.698Z,85.63
2023-11-26T21:44:51.277Z,84.88
2023-11-26T21:47:17.912Z,84.93
2023-11-26T21:49:44.543Z,86.24
2023-11-26T21:52:13.345Z,85.56
2023-11-26T21:54:40.643Z,85.29
2023-11-26T21:57:07.311Z,85.06
2023-11-26T21:59:36.305Z,84.66
2023-11-26T22:02:03.632Z,85.57
2023-11-26T22:04:30.572Z,84.92
2023-11-26T22:06:57.224Z,85.21
2023-11-26T22:09:23.968Z,84.59
2023-11-26T22:11:50.532Z,84.51
2023-11-26T22:14:17.035Z,85.01
2023-11-26T22:16:46.232Z,84.44
2023-11-26T22:19:13.108Z,84.70
2023-11-26T22:21:39.831Z,84.13
2023-11-26T22:24:08.536Z,84.65
2023-11-26T22:26:38.019Z,84.37
2023-11-26T22:29:05.649Z,84.45
2023-11-26T22:31:34.978Z,85.15
2023-11-26T22:34:03.247Z,85.30
2023-11-26T22:36:33.127Z,85.40
2023-11-26T22:39:00.061Z,84.70
2023-11-26T22:41:28.223Z,85.10
2023-11-26T22:43:59.226Z,84.92
2023-11-26T22:46:27.691Z,84.32
2023-11-26T22:48:55.785Z,84.67
2023-11-26T22:51:23.868Z,84.00
2023-11-26T22:53:51.380Z,83.26
2023-11-26T22:56:19.144Z,84.25
2023-11-26T22:58:45.674Z,84.43
2023-11-26T23:01:12.387Z,85.05
2023-11-26T23:03:39.194Z,84.39
2023-11-26T23:06:09.589Z,83.83
2023-11-26T23:08:40.086Z,84.15
2023-11-26T23:11:07.133Z,84.20
2023-11-26T23:13:37.246Z,84.88
2023-11-26T23:16:04.616Z,84.46
2023-11-26T23:18:31.746Z,84.26
2023-11-26T23:20:59.050Z,85.04
2023-11-26T23:23:37.746Z,84.71
2023-11-26T23:26:10.258Z,85.00
2023-11-26T23:28:36.877Z,84.65
2023-11-26T23:31:03.714Z,84.98
2023-11-26T23:33:30.435Z,84.94
2023-11-26T23:35:57.048Z,84.84
2023-11-26T23:38:23.659Z,83.89
2023-11-26T23:40:50.590Z,84.86
2023-11-26T23:43:19.130Z,85.39
2023-11-26T23:45:46.095Z,84.94
2023-11-26T23:48:12.761Z,84.30
2023-11-26T23:50:39.412Z,84.31
2023-11-26T23:53:07.256Z,84.83
2023-11-26T23:55:34.108Z,85.29
2023-11-26T23:58:01.020Z,84.65
